sensor_id;sensor_type;location;lat;lon;timestamp;temperature;humidity
9658;DHT22;4867;48.112;11.622;2023-12-14T00:01:14;6.20;99.90
9658;DHT22;4867;48.112;11.622;2023-12-14T00:03:42;6.20;99.90
9658;DHT22;4867;48.112;11.622;2023-12-14T00:06:12;6.10;99.90
9658;DHT22;4867;48.112;11.622;2023-12-14T00:08:39;6.10;99.90
9658;DHT22;4867;48.112;11.622;2023-12-14T00:11:08;6.10;99.90
9658;DHT22;4867;48.112;11.622;2023-12-14T00:13:36;6.10;99.90
9658;DHT22;4867;48.112;11.622;2023-12-14T00:16:04;6.10;99.90
9658;DHT22;4867;48.112;11.622;2023-12-14T00:18:32;6.10;99.90
9658;DHT22;4867;48.112;11.622;2023-12-14T00:20:59;6.10;99.90
9658;DHT22;4867;48.112;11.622;2023-12-14T00:23:26;6.00;99.90
9658;DHT22;4867;48.112;11.622;2023-12-14T00:25:54;6.00;99.90
9658;DHT22;4867;48.112;11.622;2023-12-14T00:28:21;6.00;99.90
9658;DHT22;4867;48.112;11.622;2023-12-14T00:30:52;6.00;99.90
9658;DHT22;4867;48.112;11.622;2023-12-14T00:33:20;5.90;99.90
9658;DHT22;4867;48.112;11.622;2023-12-14T00:35:47;5.90;99.90
9658;DHT22;4867;48.112;11.622;2023-12-14T00:38:14;5.90;99.90
9658;DHT22;4867;48.112;11.622;2023-12-14T00:40:42;5.90;99.90
9658;DHT22;4867;48.112;11.622;2023-12-14T00:43:09;5.90;99.90
9658;DHT22;4867;48.112;11.622;2023-12-14T00:45:36;5.90;99.90
9658;DHT22;4867;48.112;11.622;2023-12-14T00:48:04;5.90;99.90
9658;DHT22;4867;48.112;11.622;2023-12-14T00:50:31;5.90;99.90
9658;DHT22;4867;48.112;11.622;2023-12-14T00:52:59;5.90;99.90
9658;DHT22;4867;48.112;11.622;2023-12-14T00:55:26;5.80;99.90
9658;DHT22;4867;48.112;11.622;2023-12-14T00:57:53;5.80;99.90
9658;DHT22;4867;48.112;11.622;2023-12-14T01:00:21;5.80;99.90
9658;DHT22;4867;48.112;11.622;2023-12-14T01:02:48;5.90;99.90
9658;DHT22;4867;48.112;11.622;2023-12-14T01:05:16;5.90;99.90
9658;DHT22;4867;48.112;11.622;2023-12-14T01:07:43;5.90;99.90
9658;DHT22;4867;48.112;11.622;2023-12-14T01:10:11;5.90;99.90
9658;DHT22;4867;48.112;11.622;2023-12-14T01:12:38;5.90;99.90
9658;DHT22;4867;48.112;11.622;2023-12-14T01:15:06;5.90;99.90
9658;DHT22;4867;48.112;11.622;2023-12-14T01:17:33;5.90;99.90
9658;DHT22;4867;48.112;11.622;2023-12-14T01:20:07;5.90;99.90
9658;DHT22;4867;48.112;11.622;2023-12-14T01:22:35;5.90;99.90
9658;DHT22;4867;48.112;11.622;2023-12-14T01:25:03;5.80;99.90
9658;DHT22;4867;48.112;11.622;2023-12-14T01:27:30;5.80;99.90
9658;DHT22;4867;48.112;11.622;2023-12-14T01:29:57;5.80;99.90
9658;DHT22;4867;48.112;11.622;2023-12-14T01:32:25;5.80;99.90
9658;DHT22;4867;48.112;11.622;2023-12-14T01:34:52;5.80;99.90
9658;DHT22;4867;48.112;11.622;2023-12-14T01:37:19;5.70;99.90
9658;DHT22;4867;48.112;11.622;2023-12-14T01:39:47;5.70;99.90
9658;DHT22;4867;48.112;11.622;2023-12-14T01:42:14;5.80;99.90
9658;DHT22;4867;48.112;11.622;2023-12-14T01:44:41;5.80;99.90
9658;DHT22;4867;48.112;11.622;2023-12-14T01:47:09;5.70;99.90
9658;DHT22;4867;48.112;11.622;2023-12-14T01:49:36;5.70;99.90
9658;DHT22;4867;48.112;11.622;2023-12-14T01:52:04;5.70;99.90
9658;DHT22;4867;48.112;11.622;2023-12-14T01:54:32;5.70;99.90
9658;DHT22;4867;48.112;11.622;2023-12-14T01:57:00;5.70;99.90
9658;DHT22;4867;48.112;11.622;2023-12-14T01:59:28;5.60;99.90
9658;DHT22;4867;48.112;11.622;2023-12-14T02:01:56;5.50;99.90
9658;DHT22;4867;48.112;11.622;2023-12-14T02:04:25;5.60;99.90
9658;DHT22;4867;48.112;11.622;2023-12-14T02:06:53;5.60;99.90
9658;DHT22;4867;48.112;11.622;2023-12-14T02:09:20;5.70;99.90
9658;DHT22;4867;48.112;11.622;2023-12-14T02:11:47;5.70;99.90
9658;DHT22;4867;48.112;11.622;2023-12-14T02:14:15;5.70;99.90
9658;DHT22;4867;48.112;11.622;2023-12-14T02:16:42;5.70;99.90
9658;DHT22;4867;48.112;11.622;2023-12-14T02:19:10;5.70;99.90
9658;DHT22;4867;48.112;11.622;2023-12-14T02:21:37;5.60;99.90
9658;DHT22;4867;48.112;11.622;2023-12-14T02:24:04;5.60;99.90
9658;DHT22;4867;48.112;11.622;2023-12-14T02:26:32;5.60;99.90
9658;DHT22;4867;48.112;11.622;2023-12-14T02:28:59;5.50;99.90
9658;DHT22;4867;48.112;11.622;2023-12-14T02:31:27;5.50;99.90
9658;DHT22;4867;48.112;11.622;2023-12-14T02:33:54;5.50;99.90
9658;DHT22;4867;48.112;11.622;2023-12-14T02:36:21;5.50;99.90
9658;DHT22;4867;48.112;11.622;2023-12-14T02:38:49;5.50;99.90
9658;DHT22;4867;48.112;11.622;2023-12-14T02:41:16;5.50;99.90
9658;DHT22;4867;48.112;11.622;2023-12-14T02:43:43;5.60;99.90
9658;DHT22;4867;48.112;11.622;2023-12-14T02:46:11;5.50;99.90
9658;DHT22;4867;48.112;11.622;2023-12-14T02:48:42;5.50;99.90
9658;DHT22;4867;48.112;11.622;2023-12-14T02:51:14;5.40;99.90
9658;DHT22;4867;48.112;11.622;2023-12-14T02:53:44;5.50;99.90
9658;DHT22;4867;48.112;11.622;2023-12-14T02:56:11;5.40;99.90
9658;DHT22;4867;48.112;11.622;2023-12-14T02:58:39;5.40;99.90
9658;DHT22;4867;48.112;11.622;2023-12-14T03:01:08;5.40;99.90
9658;DHT22;4867;48.112;11.622;2023-12-14T03:03:38;5.40;99.90
9658;DHT22;4867;48.112;11.622;2023-12-14T03:06:06;5.30;99.90
9658;DHT22;4867;48.112;11.622;2023-12-14T03:08:33;5.30;99.90
9658;DHT22;4867;48.112;11.622;2023-12-14T03:11:00;5.30;99.90
9658;DHT22;4867;48.112;11.622;2023-12-14T03:13:28;5.30;99.90
9658;DHT22;4867;48.112;11.622;2023-12-14T03:15:55;5.30;99.90
9658;DHT22;4867;48.112;11.622;2023-12-14T03:18:23;5.40;99.90
9658;DHT22;4867;48.112;11.622;2023-12-14T03:20:50;5.40;99.90
9658;DHT22;4867;48.112;11.622;2023-12-14T03:23:18;5.50;99.90
9658;DHT22;4867;48.112;11.622;2023-12-14T03:25:45;5.40;99.90
9658;DHT22;4867;48.112;11.622;2023-12-14T03:28:12;5.30;99.90
9658;DHT22;4867;48.112;11.622;2023-12-14T03:30:40;5.40;99.90
9658;DHT22;4867;48.112;11.622;2023-12-14T03:33:07;5.40;99.90
9658;DHT22;4867;48.112;11.622;2023-12-14T03:35:35;5.40;99.90
9658;DHT22;4867;48.112;11.622;2023-12-14T03:38:03;5.40;99.90
9658;DHT22;4867;48.112;11.622;2023-12-14T03:40:30;5.40;99.90
9658;DHT22;4867;48.112;11.622;2023-12-14T03:42:58;5.40;99.90
9658;DHT22;4867;48.112;11.622;2023-12-14T03:45:25;5.30;99.90
9658;DHT22;4867;48.112;11.622;2023-12-14T03:47:52;5.40;99.90
9658;DHT22;4867;48.112;11.622;2023-12-14T03:50:20;5.30;99.90
9658;DHT22;4867;48.112;11.622;2023-12-14T03:52:47;5.40;99.90
9658;DHT22;4867;48.112;11.622;2023-12-14T03:55:14;5.30;99.90
9658;DHT22;4867;48.112;11.622;2023-12-14T03:57:42;5.40;99.90
9658;DHT22;4867;48.112;11.622;2023-12-14T04:00:11;5.30;99.90
9658;DHT22;4867;48.112;11.622;2023-12-14T04:02:39;5.30;99.90
9658;DHT22;4867;48.112;11.622;2023-12-14T04:05:07;5.30;99.90
9658;DHT22;4867;48.112;11.622;2023-12-14T04:07:39;5.40;99.90
9658;DHT22;4867;48.112;11.622;2023-12-14T04:10:12;5.40;99.90
9658;DHT22;4867;48.112;11.622;2023-12-14T04:12:40;5.40;99.90
9658;DHT22;4867;48.112;11.622;2023-12-14T04:15:09;5.40;99.90
9658;DHT22;4867;48.112;11.622;2023-12-14T04:17:36;5.40;99.90
9658;DHT22;4867;48.112;11.622;2023-12-14T04:20:05;5.40;99.90
9658;DHT22;4867;48.112;11.622;2023-12-14T04:22:33;5.40;99.90
9658;DHT22;4867;48.112;11.622;2023-12-14T04:25:01;5.30;99.90
9658;DHT22;4867;48.112;11.622;2023-12-14T04:27:29;5.30;99.90
9658;DHT22;4867;48.112;11.622;2023-12-14T04:29:57;5.30;99.90
9658;DHT22;4867;48.112;11.622;2023-12-14T04:32:24;5.30;99.90
9658;DHT22;4867;48.112;11.622;2023-12-14T04:34:51;5.20;99.90
9658;DHT22;4867;48.112;11.622;2023-12-14T04:37:19;5.30;99.90
9658;DHT22;4867;48.112;11.622;2023-12-14T04:39:46;5.30;99.90
9658;DHT22;4867;48.112;11.622;2023-12-14T04:42:13;5.30;99.90
9658;DHT22;4867;48.112;11.622;2023-12-14T04:44:41;5.30;99.90
9658;DHT22;4867;48.112;11.622;2023-12-14T04:47:08;5.20;99.90
9658;DHT22;4867;48.112;11.622;2023-12-14T04:49:35;5.20;99.90
9658;DHT22;4867;48.112;11.622;2023-12-14T04:52:03;5.20;99.90
9658;DHT22;4867;48.112;11.622;2023-12-14T04:54:31;5.20;99.90
9658;DHT22;4867;48.112;11.622;2023-12-14T04:56:58;5.30;99.90
9658;DHT22;4867;48.112;11.622;2023-12-14T04:59:26;5.30;99.90
9658;DHT22;4867;48.112;11.622;2023-12-14T05:01:53;5.40;99.90
9658;DHT22;4867;48.112;11.622;2023-12-14T05:04:20;5.40;99.90
9658;DHT22;4867;48.112;11.622;2023-12-14T05:06:48;5.50;99.90
9658;DHT22;4867;48.112;11.622;2023-12-14T05:09:15;5.50;99.90
9658;DHT22;4867;48.112;11.622;2023-12-14T05:11:43;5.50;99.90
9658;DHT22;4867;48.112;11.622;2023-12-14T05:14:10;5.40;99.90
9658;DHT22;4867;48.112;11.622;2023-12-14T05:16:37;5.40;99.90
9658;DHT22;4867;48.112;11.622;2023-12-14T05:19:05;5.30;99.90
9658;DHT22;4867;48.112;11.622;2023-12-14T05:21:32;5.40;99.90
9658;DHT22;4867;48.112;11.622;2023-12-14T05:23:59;5.30;99.90
9658;DHT22;4867;48.112;11.622;2023-12-14T05:26:27;5.30;99.90
9658;DHT22;4867;48.112;11.622;2023-12-14T05:28:54;5.30;99.90
9658;DHT22;4867;48.112;11.622;2023-12-14T05:31:21;5.30;99.90
9658;DHT22;4867;48.112;11.622;2023-12-14T05:33:49;5.30;99.90
9658;DHT22;4867;48.112;11.622;2023-12-14T05:36:16;5.30;99.90
9658;DHT22;4867;48.112;11.622;2023-12-14T05:38:43;5.30;99.90
9658;DHT22;4867;48.112;11.622;2023-12-14T05:41:11;5.30;99.90
9658;DHT22;4867;48.112;11.622;2023-12-14T05:43:39;5.30;99.90
9658;DHT22;4867;48.112;11.622;2023-12-14T05:46:06;5.30;99.90
9658;DHT22;4867;48.112;11.622;2023-12-14T05:48:33;5.40;99.90
9658;DHT22;4867;48.112;11.622;2023-12-14T05:51:01;5.30;99.90
9658;DHT22;4867;48.112;11.622;2023-12-14T05:53:29;5.30;99.90
9658;DHT22;4867;48.112;11.622;2023-12-14T05:55:56;5.30;99.90
9658;DHT22;4867;48.112;11.622;2023-12-14T05:58:23;5.30;99.90
9658;DHT22;4867;48.112;11.622;2023-12-14T06:00:51;5.30;99.90
9658;DHT22;4867;48.112;11.622;2023-12-14T06:03:18;5.30;99.90
9658;DHT22;4867;48.112;11.622;2023-12-14T06:05:45;5.30;99.90
9658;DHT22;4867;48.112;11.622;2023-12-14T06:08:13;5.30;99.90
9658;DHT22;4867;48.112;11.622;2023-12-14T06:10:40;5.30;99.90
9658;DHT22;4867;48.112;11.622;2023-12-14T06:13:08;5.30;99.90
9658;DHT22;4867;48.112;11.622;2023-12-14T06:15:35;5.30;99.90
9658;DHT22;4867;48.112;11.622;2023-12-14T06:18:02;5.30;99.90
9658;DHT22;4867;48.112;11.622;2023-12-14T06:20:32;5.30;99.90
9658;DHT22;4867;48.112;11.622;2023-12-14T06:22:59;5.30;99.90
9658;DHT22;4867;48.112;11.622;2023-12-14T06:25:26;5.30;99.90
9658;DHT22;4867;48.112;11.622;2023-12-14T06:27:54;5.30;99.90
9658;DHT22;4867;48.112;11.622;2023-12-14T06:30:21;5.30;99.90
9658;DHT22;4867;48.112;11.622;2023-12-14T06:32:49;5.30;99.90
9658;DHT22;4867;48.112;11.622;2023-12-14T06:35:16;5.30;99.90
9658;DHT22;4867;48.112;11.622;2023-12-14T06:37:43;5.30;99.90
9658;DHT22;4867;48.112;11.622;2023-12-14T06:40:11;5.30;99.90
9658;DHT22;4867;48.112;11.622;2023-12-14T06:42:38;5.40;99.90
9658;DHT22;4867;48.112;11.622;2023-12-14T06:45:06;5.40;99.90
9658;DHT22;4867;48.112;11.622;2023-12-14T06:47:34;5.40;99.90
9658;DHT22;4867;48.112;11.622;2023-12-14T06:50:01;5.40;99.90
9658;DHT22;4867;48.112;11.622;2023-12-14T06:52:29;5.40;99.90
9658;DHT22;4867;48.112;11.622;2023-12-14T06:54:56;5.50;99.90
9658;DHT22;4867;48.112;11.622;2023-12-14T06:57:23;5.40;99.90
9658;DHT22;4867;48.112;11.622;2023-12-14T06:59:53;5.40;99.90
9658;DHT22;4867;48.112;11.622;2023-12-14T07:02:21;5.40;99.90
9658;DHT22;4867;48.112;11.622;2023-12-14T07:04:48;5.40;99.90
9658;DHT22;4867;48.112;11.622;2023-12-14T07:07:16;5.50;99.90
9658;DHT22;4867;48.112;11.622;2023-12-14T07:09:43;5.50;99.90
9658;DHT22;4867;48.112;11.622;2023-12-14T07:12:13;5.50;99.90
9658;DHT22;4867;48.112;11.622;2023-12-14T07:14:41;5.50;99.90
9658;DHT22;4867;48.112;11.622;2023-12-14T07:17:08;5.50;99.90
9658;DHT22;4867;48.112;11.622;2023-12-14T07:19:35;5.50;99.90
9658;DHT22;4867;48.112;11.622;2023-12-14T07:22:03;5.50;99.90
9658;DHT22;4867;48.112;11.622;2023-12-14T07:24:30;5.60;99.90
9658;DHT22;4867;48.112;11.622;2023-12-14T07:27:14;5.60;99.90
9658;DHT22;4867;48.112;11.622;2023-12-14T07:29:42;5.60;99.90
9658;DHT22;4867;48.112;11.622;2023-12-14T07:32:09;5.70;99.90
9658;DHT22;4867;48.112;11.622;2023-12-14T07:34:36;5.80;99.90
9658;DHT22;4867;48.112;11.622;2023-12-14T07:37:04;5.80;99.90
9658;DHT22;4867;48.112;11.622;2023-12-14T07:39:32;5.70;99.90
9658;DHT22;4867;48.112;11.622;2023-12-14T07:42:00;5.80;99.90
9658;DHT22;4867;48.112;11.622;2023-12-14T07:44:27;5.80;99.90
9658;DHT22;4867;48.112;11.622;2023-12-14T07:46:59;5.70;99.90
9658;DHT22;4867;48.112;11.622;2023-12-14T07:49:27;5.80;99.90
9658;DHT22;4867;48.112;11.622;2023-12-14T07:51:54;5.80;99.90
9658;DHT22;4867;48.112;11.622;2023-12-14T07:54:22;5.90;99.90
9658;DHT22;4867;48.112;11.622;2023-12-14T07:56:49;5.90;99.90
9658;DHT22;4867;48.112;11.622;2023-12-14T07:59:16;5.90;99.90
9658;DHT22;4867;48.112;11.622;2023-12-14T08:01:44;5.90;99.90
9658;DHT22;4867;48.112;11.622;2023-12-14T08:04:12;6.00;99.90
9658;DHT22;4867;48.112;11.622;2023-12-14T08:06:39;6.10;99.90
9658;DHT22;4867;48.112;11.622;2023-12-14T08:09:07;6.20;99.90
9658;DHT22;4867;48.112;11.622;2023-12-14T08:11:34;6.10;99.90
9658;DHT22;4867;48.112;11.622;2023-12-14T08:14:01;6.20;99.90
9658;DHT22;4867;48.112;11.622;2023-12-14T08:16:30;6.30;99.90
9658;DHT22;4867;48.112;11.622;2023-12-14T08:18:57;6.30;99.90
9658;DHT22;4867;48.112;11.622;2023-12-14T08:21:25;6.30;99.90
9658;DHT22;4867;48.112;11.622;2023-12-14T08:23:52;6.40;99.90
9658;DHT22;4867;48.112;11.622;2023-12-14T08:26:19;6.40;99.90
9658;DHT22;4867;48.112;11.622;2023-12-14T08:28:47;6.40;99.90
9658;DHT22;4867;48.112;11.622;2023-12-14T08:31:14;6.40;99.90
9658;DHT22;4867;48.112;11.622;2023-12-14T08:33:42;6.40;99.90
9658;DHT22;4867;48.112;11.622;2023-12-14T08:36:17;6.40;99.90
9658;DHT22;4867;48.112;11.622;2023-12-14T08:38:44;6.40;99.90
9658;DHT22;4867;48.112;11.622;2023-12-14T08:41:16;6.30;99.90
9658;DHT22;4867;48.112;11.622;2023-12-14T08:43:43;6.30;99.90
9658;DHT22;4867;48.112;11.622;2023-12-14T08:46:11;6.30;99.90
9658;DHT22;4867;48.112;11.622;2023-12-14T08:48:38;6.30;99.90
9658;DHT22;4867;48.112;11.622;2023-12-14T08:51:06;6.20;99.90
9658;DHT22;4867;48.112;11.622;2023-12-14T08:53:33;6.20;99.90
9658;DHT22;4867;48.112;11.622;2023-12-14T08:56:00;6.20;99.90
9658;DHT22;4867;48.112;11.622;2023-12-14T08:58:29;6.30;99.90
9658;DHT22;4867;48.112;11.622;2023-12-14T09:00:57;6.20;99.90
9658;DHT22;4867;48.112;11.622;2023-12-14T09:03:25;6.20;99.90
9658;DHT22;4867;48.112;11.622;2023-12-14T09:05:53;6.20;99.90
9658;DHT22;4867;48.112;11.622;2023-12-14T09:08:21;6.20;99.90
9658;DHT22;4867;48.112;11.622;2023-12-14T09:10:48;6.30;99.90
9658;DHT22;4867;48.112;11.622;2023-12-14T09:13:16;6.30;99.90
9658;DHT22;4867;48.112;11.622;2023-12-14T09:15:43;6.30;99.90
9658;DHT22;4867;48.112;11.622;2023-12-14T09:18:10;6.40;99.90
9658;DHT22;4867;48.112;11.622;2023-12-14T09:20:38;6.30;99.90
9658;DHT22;4867;48.112;11.622;2023-12-14T09:23:08;6.40;99.90
9658;DHT22;4867;48.112;11.622;2023-12-14T09:25:36;6.30;99.90
9658;DHT22;4867;48.112;11.622;2023-12-14T09:28:03;6.30;99.90
9658;DHT22;4867;48.112;11.622;2023-12-14T09:30:30;6.30;99.90
9658;DHT22;4867;48.112;11.622;2023-12-14T09:32:58;6.30;99.90
9658;DHT22;4867;48.112;11.622;2023-12-14T09:35:25;6.40;99.90
9658;DHT22;4867;48.112;11.622;2023-12-14T09:37:53;6.40;99.90
9658;DHT22;4867;48.112;11.622;2023-12-14T09:40:20;6.30;99.90
9658;DHT22;4867;48.112;11.622;2023-12-14T09:42:49;6.30;99.90
9658;DHT22;4867;48.112;11.622;2023-12-14T09:45:17;6.40;99.90
9658;DHT22;4867;48.112;11.622;2023-12-14T09:47:46;6.30;99.90
9658;DHT22;4867;48.112;11.622;2023-12-14T09:50:13;6.30;99.90
9658;DHT22;4867;48.112;11.622;2023-12-14T09:52:42;6.10;99.90
9658;DHT22;4867;48.112;11.622;2023-12-14T09:55:12;6.10;99.90
9658;DHT22;4867;48.112;11.622;2023-12-14T09:57:40;6.20;99.90
9658;DHT22;4867;48.112;11.622;2023-12-14T10:00:09;6.30;99.90
9658;DHT22;4867;48.112;11.622;2023-12-14T10:02:37;6.30;99.90
9658;DHT22;4867;48.112;11.622;2023-12-14T10:05:09;6.40;99.90
9658;DHT22;4867;48.112;11.622;2023-12-14T10:07:44;6.40;99.90
9658;DHT22;4867;48.112;11.622;2023-12-14T10:10:13;6.40;99.90
9658;DHT22;4867;48.112;11.622;2023-12-14T10:12:51;6.50;99.90
9658;DHT22;4867;48.112;11.622;2023-12-14T10:15:20;6.50;99.90
9658;DHT22;4867;48.112;11.622;2023-12-14T10:17:52;6.50;99.90
9658;DHT22;4867;48.112;11.622;2023-12-14T10:20:22;6.50;99.90
9658;DHT22;4867;48.112;11.622;2023-12-14T10:22:50;6.50;99.90
9658;DHT22;4867;48.112;11.622;2023-12-14T10:25:20;6.50;99.90
9658;DHT22;4867;48.112;11.622;2023-12-14T10:27:48;6.50;99.90
9658;DHT22;4867;48.112;11.622;2023-12-14T10:30:15;6.50;99.90
9658;DHT22;4867;48.112;11.622;2023-12-14T10:32:42;6.50;99.90
9658;DHT22;4867;48.112;11.622;2023-12-14T10:35:11;6.50;99.90
9658;DHT22;4867;48.112;11.622;2023-12-14T10:37:39;6.60;99.90
9658;DHT22;4867;48.112;11.622;2023-12-14T10:40:07;6.60;99.90
9658;DHT22;4867;48.112;11.622;2023-12-14T10:42:39;6.60;99.90
9658;DHT22;4867;48.112;11.622;2023-12-14T10:45:12;6.70;99.90
9658;DHT22;4867;48.112;11.622;2023-12-14T10:47:47;6.70;99.90
9658;DHT22;4867;48.112;11.622;2023-12-14T10:50:15;6.70;99.90
9658;DHT22;4867;48.112;11.622;2023-12-14T10:52:44;6.70;99.90
9658;DHT22;4867;48.112;11.622;2023-12-14T10:57:51;6.70;99.90
9658;DHT22;4867;48.112;11.622;2023-12-14T11:00:19;6.70;99.90
9658;DHT22;4867;48.112;11.622;2023-12-14T11:02:47;6.60;99.90
9658;DHT22;4867;48.112;11.622;2023-12-14T11:05:16;6.60;99.90
9658;DHT22;4867;48.112;11.622;2023-12-14T11:10:22;6.50;99.90
9658;DHT22;4867;48.112;11.622;2023-12-14T11:12:54;6.50;99.90
9658;DHT22;4867;48.112;11.622;2023-12-14T11:15:22;6.50;99.90
9658;DHT22;4867;48.112;11.622;2023-12-14T11:23:13;6.50;99.90
9658;DHT22;4867;48.112;11.622;2023-12-14T11:25:41;6.50;99.90
9658;DHT22;4867;48.112;11.622;2023-12-14T11:28:13;6.60;99.90
9658;DHT22;4867;48.112;11.622;2023-12-14T11:30:44;6.60;99.90
9658;DHT22;4867;48.112;11.622;2023-12-14T11:33:22;6.70;99.90
9658;DHT22;4867;48.112;11.622;2023-12-14T11:35:51;6.80;99.90
9658;DHT22;4867;48.112;11.622;2023-12-14T11:38:21;6.90;99.90
9658;DHT22;4867;48.112;11.622;2023-12-14T11:40:50;7.00;99.90
9658;DHT22;4867;48.112;11.622;2023-12-14T11:43:18;6.90;99.90
9658;DHT22;4867;48.112;11.622;2023-12-14T11:45:48;6.90;99.90
9658;DHT22;4867;48.112;11.622;2023-12-14T11:48:16;7.00;99.90
9658;DHT22;4867;48.112;11.622;2023-12-14T11:50:44;7.00;99.90
9658;DHT22;4867;48.112;11.622;2023-12-14T11:53:12;6.80;99.90
9658;DHT22;4867;48.112;11.622;2023-12-14T11:55:41;6.80;99.90
9658;DHT22;4867;48.112;11.622;2023-12-14T11:58:12;6.90;99.90
9658;DHT22;4867;48.112;11.622;2023-12-14T12:00:41;6.90;99.90
9658;DHT22;4867;48.112;11.622;2023-12-14T12:03:19;6.90;99.90
9658;DHT22;4867;48.112;11.622;2023-12-14T12:05:51;6.90;99.90
9658;DHT22;4867;48.112;11.622;2023-12-14T12:08:20;7.00;99.90
9658;DHT22;4867;48.112;11.622;2023-12-14T12:10:48;7.20;99.90
9658;DHT22;4867;48.112;11.622;2023-12-14T12:13:18;7.20;99.90
9658;DHT22;4867;48.112;11.622;2023-12-14T12:15:46;7.30;99.90
9658;DHT22;4867;48.112;11.622;2023-12-14T12:18:15;7.40;99.90
9658;DHT22;4867;48.112;11.622;2023-12-14T12:20:44;7.50;99.90
9658;DHT22;4867;48.112;11.622;2023-12-14T12:23:11;7.50;99.90
9658;DHT22;4867;48.112;11.622;2023-12-14T12:25:39;7.50;99.90
9658;DHT22;4867;48.112;11.622;2023-12-14T12:28:06;7.40;99.90
9658;DHT22;4867;48.112;11.622;2023-12-14T12:30:33;7.30;99.90
9658;DHT22;4867;48.112;11.622;2023-12-14T12:33:05;7.20;99.90
9658;DHT22;4867;48.112;11.622;2023-12-14T12:35:33;7.20;99.90
9658;DHT22;4867;48.112;11.622;2023-12-14T12:38:01;7.10;99.90
9658;DHT22;4867;48.112;11.622;2023-12-14T12:40:29;7.10;99.90
9658;DHT22;4867;48.112;11.622;2023-12-14T12:42:58;7.10;99.90
9658;DHT22;4867;48.112;11.622;2023-12-14T12:45:25;7.10;99.90
9658;DHT22;4867;48.112;11.622;2023-12-14T12:47:54;7.00;99.90
9658;DHT22;4867;48.112;11.622;2023-12-14T12:50:22;7.00;99.90
9658;DHT22;4867;48.112;11.622;2023-12-14T12:52:49;7.10;99.90
9658;DHT22;4867;48.112;11.622;2023-12-14T12:55:18;7.10;99.90
9658;DHT22;4867;48.112;11.622;2023-12-14T12:57:45;7.00;99.90
9658;DHT22;4867;48.112;11.622;2023-12-14T13:00:14;7.00;99.90
9658;DHT22;4867;48.112;11.622;2023-12-14T13:02:44;7.00;99.90
9658;DHT22;4867;48.112;11.622;2023-12-14T13:05:14;7.10;99.90
9658;DHT22;4867;48.112;11.622;2023-12-14T13:07:45;7.20;99.90
9658;DHT22;4867;48.112;11.622;2023-12-14T13:10:14;7.20;99.90
9658;DHT22;4867;48.112;11.622;2023-12-14T13:12:57;7.20;99.90
9658;DHT22;4867;48.112;11.622;2023-12-14T13:15:25;7.20;99.90
9658;DHT22;4867;48.112;11.622;2023-12-14T13:17:54;7.20;99.90
9658;DHT22;4867;48.112;11.622;2023-12-14T13:20:22;7.20;99.90
9658;DHT22;4867;48.112;11.622;2023-12-14T13:22:49;7.20;99.90
9658;DHT22;4867;48.112;11.622;2023-12-14T13:25:17;7.20;99.90
9658;DHT22;4867;48.112;11.622;2023-12-14T13:27:44;7.20;99.90
9658;DHT22;4867;48.112;11.622;2023-12-14T13:30:12;7.40;99.90
9658;DHT22;4867;48.112;11.622;2023-12-14T13:32:45;7.30;99.90
9658;DHT22;4867;48.112;11.622;2023-12-14T13:35:13;7.30;99.90
9658;DHT22;4867;48.112;11.622;2023-12-14T13:37:40;7.30;99.90
9658;DHT22;4867;48.112;11.622;2023-12-14T13:40:09;7.30;99.90
9658;DHT22;4867;48.112;11.622;2023-12-14T13:42:40;7.20;99.90
9658;DHT22;4867;48.112;11.622;2023-12-14T13:45:29;7.20;99.90
9658;DHT22;4867;48.112;11.622;2023-12-14T13:47:58;7.30;99.90
9658;DHT22;4867;48.112;11.622;2023-12-14T13:50:26;7.30;99.90
9658;DHT22;4867;48.112;11.622;2023-12-14T13:52:55;7.20;99.90
9658;DHT22;4867;48.112;11.622;2023-12-14T13:55:22;7.20;99.90
9658;DHT22;4867;48.112;11.622;2023-12-14T13:57:49;7.20;99.90
9658;DHT22;4867;48.112;11.622;2023-12-14T14:00:17;7.30;99.90
9658;DHT22;4867;48.112;11.622;2023-12-14T14:02:46;7.20;99.90
9658;DHT22;4867;48.112;11.622;2023-12-14T14:05:13;7.20;99.90
9658;DHT22;4867;48.112;11.622;2023-12-14T14:07:41;7.20;99.90
9658;DHT22;4867;48.112;11.622;2023-12-14T14:10:09;7.20;99.90
9658;DHT22;4867;48.112;11.622;2023-12-14T14:12:37;7.20;99.90
9658;DHT22;4867;48.112;11.622;2023-12-14T14:15:05;7.20;99.90
9658;DHT22;4867;48.112;11.622;2023-12-14T14:17:32;7.10;99.90
9658;DHT22;4867;48.112;11.622;2023-12-14T14:20:00;7.10;99.90
9658;DHT22;4867;48.112;11.622;2023-12-14T14:22:27;7.20;99.90
9658;DHT22;4867;48.112;11.622;2023-12-14T14:24:55;7.30;99.90
9658;DHT22;4867;48.112;11.622;2023-12-14T14:27:22;7.20;99.90
9658;DHT22;4867;48.112;11.622;2023-12-14T14:29:50;7.00;99.90
9658;DHT22;4867;48.112;11.622;2023-12-14T14:32:21;7.00;99.90
9658;DHT22;4867;48.112;11.622;2023-12-14T14:34:48;7.00;99.90
9658;DHT22;4867;48.112;11.622;2023-12-14T14:37:16;6.90;99.90
9658;DHT22;4867;48.112;11.622;2023-12-14T14:39:43;6.90;99.90
9658;DHT22;4867;48.112;11.622;2023-12-14T14:42:11;6.80;99.90
9658;DHT22;4867;48.112;11.622;2023-12-14T14:44:39;6.80;99.90
9658;DHT22;4867;48.112;11.622;2023-12-14T14:47:06;6.70;99.90
9658;DHT22;4867;48.112;11.622;2023-12-14T14:49:34;6.80;99.90
9658;DHT22;4867;48.112;11.622;2023-12-14T14:52:01;6.70;99.90
9658;DHT22;4867;48.112;11.622;2023-12-14T14:54:28;6.80;99.90
9658;DHT22;4867;48.112;11.622;2023-12-14T14:56:56;6.70;99.90
9658;DHT22;4867;48.112;11.622;2023-12-14T14:59:23;6.80;99.90
9658;DHT22;4867;48.112;11.622;2023-12-14T15:01:50;6.80;99.90
9658;DHT22;4867;48.112;11.622;2023-12-14T15:04:18;6.80;99.90
9658;DHT22;4867;48.112;11.622;2023-12-14T15:06:46;6.80;99.90
9658;DHT22;4867;48.112;11.622;2023-12-14T15:09:14;6.70;99.90
9658;DHT22;4867;48.112;11.622;2023-12-14T15:11:41;6.70;99.90
9658;DHT22;4867;48.112;11.622;2023-12-14T15:14:09;6.70;99.90
9658;DHT22;4867;48.112;11.622;2023-12-14T15:16:39;6.70;99.90
9658;DHT22;4867;48.112;11.622;2023-12-14T15:19:06;6.60;99.90
9658;DHT22;4867;48.112;11.622;2023-12-14T15:21:34;6.60;99.90
9658;DHT22;4867;48.112;11.622;2023-12-14T15:24:01;6.60;99.90
9658;DHT22;4867;48.112;11.622;2023-12-14T15:26:29;6.60;99.90
9658;DHT22;4867;48.112;11.622;2023-12-14T15:28:59;6.60;99.90
9658;DHT22;4867;48.112;11.622;2023-12-14T15:31:26;6.60;99.90
9658;DHT22;4867;48.112;11.622;2023-12-14T15:33:54;6.60;99.90
9658;DHT22;4867;48.112;11.622;2023-12-14T15:36:21;6.60;99.90
9658;DHT22;4867;48.112;11.622;2023-12-14T15:38:49;6.60;99.90
9658;DHT22;4867;48.112;11.622;2023-12-14T15:41:16;6.60;99.90
9658;DHT22;4867;48.112;11.622;2023-12-14T15:43:44;6.60;99.90
9658;DHT22;4867;48.112;11.622;2023-12-14T15:46:11;6.60;99.90
9658;DHT22;4867;48.112;11.622;2023-12-14T15:48:38;6.70;99.90
9658;DHT22;4867;48.112;11.622;2023-12-14T15:51:06;6.60;99.90
9658;DHT22;4867;48.112;11.622;2023-12-14T15:53:36;6.60;99.90
9658;DHT22;4867;48.112;11.622;2023-12-14T15:56:04;6.60;99.90
9658;DHT22;4867;48.112;11.622;2023-12-14T15:58:32;6.60;99.90
9658;DHT22;4867;48.112;11.622;2023-12-14T16:00:59;6.60;99.90
9658;DHT22;4867;48.112;11.622;2023-12-14T16:03:27;6.50;99.90
9658;DHT22;4867;48.112;11.622;2023-12-14T16:05:54;6.60;99.90
9658;DHT22;4867;48.112;11.622;2023-12-14T16:08:21;6.50;99.90
9658;DHT22;4867;48.112;11.622;2023-12-14T16:10:49;6.50;99.90
9658;DHT22;4867;48.112;11.622;2023-12-14T16:13:20;6.60;99.90
9658;DHT22;4867;48.112;11.622;2023-12-14T16:15:47;6.50;99.90
9658;DHT22;4867;48.112;11.622;2023-12-14T16:18:15;6.50;99.90